Time;durP1;ratioP1;P1;durP2;ratioP2;P2;SDS_P1;SDS_P2;PMS_P1;PMS_P2;Temp;Humidity;BMP_temperature;BMP_pressure;BME280_temperature;BME280_humidity;BME280_pressure;Samples;Min_cycle;Max_cycle;Signal;HPM_P1;HPM_P2
2023/08/28 00:00:34;;;;;;;;;;;13.70;72.90;;;;;;4117237;28;19960;-85
2023/08/28 00:02:54;;;;;;;;;;;13.60;73.60;;;;;;4117232;28;19920;-86
2023/08/28 00:05:13;;;;;;;;;;;13.70;72.80;;;;;;4117746;28;19975;-86
2023/08/28 00:07:33;;;;;;;;;;;13.70;73.00;;;;;;4124175;28;19993;-85
2023/08/28 00:09:52;;;;;;;;;;;13.70;72.90;;;;;;4120548;28;20027;-84
2023/08/28 00:12:12;;;;;;;;;;;13.60;72.70;;;;;;4120004;28;20075;-85
2023/08/28 00:14:31;;;;;;;;;;;13.60;72.70;;;;;;4136383;28;20469;-85
2023/08/28 00:16:50;;;;;;;;;;;13.60;72.70;;;;;;4124564;28;20437;-85
2023/08/28 00:19:10;;;;;;;;;;;13.60;73.50;;;;;;4119683;28;19964;-84
2023/08/28 00:21:29;;;;;;;;;;;13.60;72.80;;;;;;4131675;28;19932;-84
2023/08/28 00:23:49;;;;;;;;;;;13.60;72.70;;;;;;4122035;28;19920;-85
2023/08/28 00:26:08;;;;;;;;;;;13.60;72.80;;;;;;4121305;28;19917;-85
2023/08/28 00:28:27;;;;;;;;;;;13.60;72.80;;;;;;4120594;28;19969;-83
2023/08/28 00:30:46;;;;;;;;;;;13.60;72.70;;;;;;4120767;28;19925;-84
2023/08/28 00:33:06;;;;;;;;;;;13.60;72.70;;;;;;4119542;28;19924;-85
2023/08/28 00:35:25;;;;;;;;;;;13.60;72.60;;;;;;4120561;28;20159;-84
2023/08/28 00:37:45;;;;;;;;;;;13.60;72.90;;;;;;4132730;28;19967;-84
2023/08/28 00:40:05;;;;;;;;;;;13.60;72.80;;;;;;4118310;28;19964;-85
2023/08/28 00:42:24;;;;;;;;;;;13.60;72.70;;;;;;4128029;28;19975;-84
2023/08/28 00:44:44;;;;;;;;;;;13.60;73.60;;;;;;4121835;28;20025;-85
2023/08/28 00:47:05;;;;;;;;;;;13.60;72.70;;;;;;4135249;28;19916;-85
2023/08/28 00:49:24;;;;;;;;;;;13.60;73.10;;;;;;4126257;28;20462;-84
2023/08/28 00:51:44;;;;;;;;;;;13.50;73.00;;;;;;4123930;28;19956;-85
2023/08/28 00:54:03;;;;;;;;;;;13.60;73.20;;;;;;4120767;28;20009;-85
2023/08/28 00:56:22;;;;;;;;;;;13.60;73.10;;;;;;4124284;28;20562;-84
2023/08/28 00:58:42;;;;;;;;;;;13.60;73.70;;;;;;4122417;28;19924;-85
2023/08/28 01:01:01;;;;;;;;;;;13.60;73.70;;;;;;4123812;28;20007;-84
2023/08/28 01:03:20;;;;;;;;;;;13.50;73.30;;;;;;4120698;28;19930;-85
2023/08/28 01:05:59;;;;;;;;;;;13.50;74.00;;;;;;4123730;28;19925;-84
2023/08/28 01:08:33;;;;;;;;;;;13.60;73.70;;;;;;4126413;28;19925;-85
2023/08/28 01:10:56;;;;;;;;;;;13.50;73.70;;;;;;4123850;28;20008;-85
2023/08/28 01:13:19;;;;;;;;;;;13.60;74.40;;;;;;4121522;28;19925;-84
2023/08/28 01:15:38;;;;;;;;;;;13.50;74.00;;;;;;4135973;28;19928;-84
2023/08/28 01:18:00;;;;;;;;;;;13.60;74.30;;;;;;4146272;28;19921;-85
2023/08/28 01:20:19;;;;;;;;;;;13.50;74.10;;;;;;4155046;28;20355;-84
2023/08/28 01:22:42;;;;;;;;;;;13.60;74.50;;;;;;4143035;28;20297;-84
2023/08/28 01:25:10;;;;;;;;;;;13.50;74.80;;;;;;4122070;28;19981;-83
2023/08/28 01:27:30;;;;;;;;;;;13.50;74.60;;;;;;4126043;28;19924;-84
2023/08/28 01:30:09;;;;;;;;;;;13.50;74.10;;;;;;4121407;28;20064;-84
2023/08/28 01:32:28;;;;;;;;;;;13.50;74.50;;;;;;4141503;28;19932;-84
2023/08/28 01:34:47;;;;;;;;;;;13.50;74.50;;;;;;4139742;28;20270;-84
2023/08/28 01:37:12;;;;;;;;;;;13.50;74.60;;;;;;4123795;28;19921;-84
2023/08/28 01:39:36;;;;;;;;;;;13.60;75.20;;;;;;4124377;28;20603;-84
2023/08/28 01:41:56;;;;;;;;;;;13.60;76.10;;;;;;4136084;28;19960;-83
2023/08/28 01:44:16;;;;;;;;;;;13.50;75.00;;;;;;4134013;28;19924;-84
2023/08/28 01:46:35;;;;;;;;;;;13.50;75.20;;;;;;4133918;28;20147;-84
2023/08/28 01:48:54;;;;;;;;;;;13.50;75.80;;;;;;4124254;28;20417;-84
2023/08/28 01:51:14;;;;;;;;;;;13.50;75.70;;;;;;4127591;28;20008;-83
2023/08/28 01:53:32;;;;;;;;;;;13.50;76.70;;;;;;4122061;28;19921;-84
2023/08/28 01:56:07;;;;;;;;;;;13.50;76.20;;;;;;4122946;28;20314;-84
2023/08/28 01:58:27;;;;;;;;;;;13.50;77.20;;;;;;4136670;28;20433;-83
2023/08/28 02:00:46;;;;;;;;;;;13.50;76.70;;;;;;4135161;28;20047;-83
2023/08/28 02:03:05;;;;;;;;;;;13.50;76.80;;;;;;4125982;28;19937;-83
2023/08/28 02:05:26;;;;;;;;;;;13.50;76.80;;;;;;4134892;28;19925;-84
2023/08/28 02:07:45;;;;;;;;;;;13.50;76.70;;;;;;4135912;28;20027;-85
2023/08/28 02:10:05;;;;;;;;;;;13.50;77.40;;;;;;4122371;28;20294;-84
2023/08/28 02:12:24;;;;;;;;;;;13.50;77.30;;;;;;4154417;28;19932;-84
2023/08/28 02:14:43;;;;;;;;;;;13.50;77.70;;;;;;4144498;28;20003;-84
2023/08/28 02:17:03;;;;;;;;;;;13.50;77.50;;;;;;4158776;28;19952;-84
2023/08/28 02:19:22;;;;;;;;;;;13.50;77.20;;;;;;4142827;28;19993;-84
2023/08/28 02:21:41;;;;;;;;;;;13.50;78.00;;;;;;4145568;28;19912;-84
2023/08/28 02:24:00;;;;;;;;;;;13.50;78.00;;;;;;4162818;28;19940;-83
2023/08/28 02:26:19;;;;;;;;;;;13.50;77.80;;;;;;4142152;28;19933;-83
2023/08/28 02:28:39;;;;;;;;;;;13.50;77.40;;;;;;4145192;28;19929;-82
2023/08/28 02:30:59;;;;;;;;;;;13.60;78.30;;;;;;4145198;28;19921;-84
2023/08/28 02:33:18;;;;;;;;;;;13.50;78.00;;;;;;4156246;28;20028;-84
2023/08/28 02:35:37;;;;;;;;;;;13.50;77.80;;;;;;4124290;28;20342;-84
2023/08/28 02:37:57;;;;;;;;;;;13.60;78.20;;;;;;4137023;28;19932;-84
2023/08/28 02:40:16;;;;;;;;;;;13.50;77.70;;;;;;4137269;28;19921;-84
2023/08/28 02:42:36;;;;;;;;;;;13.50;77.70;;;;;;4124460;28;20015;-84
2023/08/28 02:44:55;;;;;;;;;;;13.40;78.00;;;;;;4122900;28;20180;-84
2023/08/28 02:47:14;;;;;;;;;;;13.40;77.90;;;;;;4122284;28;19958;-85
2023/08/28 02:49:34;;;;;;;;;;;13.40;78.40;;;;;;4126129;28;20418;-85
2023/08/28 02:51:53;;;;;;;;;;;13.40;78.40;;;;;;4120103;28;20053;-84
2023/08/28 02:54:12;;;;;;;;;;;13.40;78.00;;;;;;4124579;28;19927;-83
2023/08/28 02:56:36;;;;;;;;;;;13.30;78.20;;;;;;4122332;28;20270;-83
2023/08/28 02:58:56;;;;;;;;;;;13.40;78.20;;;;;;4121323;28;20399;-83
2023/08/28 03:01:16;;;;;;;;;;;13.30;78.90;;;;;;4124240;28;19968;-83
2023/08/28 03:03:34;;;;;;;;;;;13.30;78.70;;;;;;4121214;28;19928;-84
2023/08/28 03:05:54;;;;;;;;;;;13.30;78.10;;;;;;4119084;28;19968;-84
2023/08/28 03:08:13;;;;;;;;;;;13.30;78.00;;;;;;4131397;28;19924;-83
2023/08/28 03:10:34;;;;;;;;;;;13.40;78.20;;;;;;4121241;28;20001;-84
2023/08/28 03:12:53;;;;;;;;;;;13.30;78.20;;;;;;4121355;28;20333;-83
2023/08/28 03:15:12;;;;;;;;;;;13.30;78.00;;;;;;4121344;28;19963;-83
2023/08/28 03:17:32;;;;;;;;;;;13.20;77.90;;;;;;4134201;28;20013;-83
2023/08/28 03:19:51;;;;;;;;;;;13.20;78.00;;;;;;4135522;28;19932;-83
2023/08/28 03:22:10;;;;;;;;;;;13.20;78.80;;;;;;4131809;28;20363;-83
2023/08/28 03:24:30;;;;;;;;;;;13.10;78.70;;;;;;4115285;28;20472;-83
2023/08/28 03:26:49;;;;;;;;;;;13.10;78.80;;;;;;4120516;28;19920;-84
2023/08/28 03:29:08;;;;;;;;;;;13.20;79.10;;;;;;4130505;28;20298;-84
2023/08/28 03:31:28;;;;;;;;;;;13.10;79.60;;;;;;4119287;28;20307;-83
2023/08/28 03:33:47;;;;;;;;;;;13.10;79.10;;;;;;4138064;28;19945;-84
2023/08/28 03:36:07;;;;;;;;;;;13.10;78.80;;;;;;4136626;28;20397;-85
2023/08/28 03:38:26;;;;;;;;;;;13.00;78.70;;;;;;4118343;28;19924;-83
2023/08/28 03:40:45;;;;;;;;;;;13.00;78.60;;;;;;4119922;28;19929;-83
2023/08/28 03:43:04;;;;;;;;;;;13.00;78.50;;;;;;4119417;28;20310;-83
2023/08/28 03:45:24;;;;;;;;;;;13.00;78.60;;;;;;4118224;28;19924;-83
2023/08/28 03:47:43;;;;;;;;;;;13.00;78.90;;;;;;4118192;28;19925;-83
2023/08/28 03:50:02;;;;;;;;;;;13.00;78.70;;;;;;4121684;28;19925;-83
2023/08/28 03:52:21;;;;;;;;;;;13.00;78.50;;;;;;4135100;28;19967;-83
2023/08/28 03:54:41;;;;;;;;;;;13.00;78.50;;;;;;4121816;28;19941;-84
2023/08/28 03:57:00;;;;;;;;;;;13.00;78.50;;;;;;4121377;28;20056;-83
2023/08/28 03:59:21;;;;;;;;;;;13.00;78.50;;;;;;4120346;28;19981;-85
2023/08/28 04:01:40;;;;;;;;;;;12.90;78.60;;;;;;4121429;28;20341;-83
2023/08/28 04:03:59;;;;;;;;;;;12.90;78.80;;;;;;4121697;28;19959;-83
2023/08/28 04:06:19;;;;;;;;;;;12.90;78.40;;;;;;4132445;28;19945;-84
2023/08/28 04:08:38;;;;;;;;;;;12.90;78.80;;;;;;4127560;28;19950;-83
2023/08/28 04:10:58;;;;;;;;;;;12.90;78.70;;;;;;4141638;28;19925;-83
2023/08/28 04:13:17;;;;;;;;;;;12.80;78.40;;;;;;4132011;28;19961;-83
2023/08/28 04:15:37;;;;;;;;;;;12.90;79.20;;;;;;4119159;28;19938;-84
2023/08/28 04:17:59;;;;;;;;;;;12.80;78.30;;;;;;4130203;28;19932;-86
2023/08/28 04:20:18;;;;;;;;;;;12.80;78.20;;;;;;4121853;28;20040;-84
2023/08/28 04:22:41;;;;;;;;;;;12.80;78.10;;;;;;4122272;28;19929;-84
2023/08/28 04:25:00;;;;;;;;;;;12.80;78.10;;;;;;4123608;28;19924;-85
2023/08/28 04:27:20;;;;;;;;;;;12.80;78.20;;;;;;4121792;28;20281;-85
2023/08/28 04:29:39;;;;;;;;;;;12.80;78.40;;;;;;4123502;28;20406;-85
2023/08/28 04:31:59;;;;;;;;;;;12.80;78.50;;;;;;4122626;28;19940;-85
2023/08/28 04:34:18;;;;;;;;;;;12.80;78.50;;;;;;4122697;28;19981;-86
2023/08/28 04:36:37;;;;;;;;;;;12.70;78.90;;;;;;4122231;28;19956;-85
2023/08/28 04:38:56;;;;;;;;;;;12.70;78.90;;;;;;4133424;28;20029;-85
2023/08/28 04:41:16;;;;;;;;;;;12.70;78.70;;;;;;4120345;28;20505;-84
2023/08/28 04:43:35;;;;;;;;;;;12.70;79.30;;;;;;4122295;28;19979;-86
2023/08/28 04:45:54;;;;;;;;;;;12.70;79.10;;;;;;4118868;28;20004;-85
2023/08/28 04:48:13;;;;;;;;;;;12.70;78.30;;;;;;4131708;28;19972;-84
2023/08/28 04:50:32;;;;;;;;;;;12.70;78.20;;;;;;4119899;28;20279;-86
2023/08/28 04:52:52;;;;;;;;;;;12.70;78.60;;;;;;4116404;28;19929;-85
2023/08/28 04:55:11;;;;;;;;;;;12.70;78.70;;;;;;4132043;28;20099;-85
2023/08/28 04:57:32;;;;;;;;;;;12.60;78.90;;;;;;4122560;28;20028;-85
2023/08/28 04:59:51;;;;;;;;;;;12.60;78.50;;;;;;4122082;28;20345;-85
2023/08/28 05:02:11;;;;;;;;;;;12.60;78.40;;;;;;4123361;28;19929;-85
2023/08/28 05:04:30;;;;;;;;;;;12.70;78.30;;;;;;4121602;28;20209;-86
2023/08/28 05:06:49;;;;;;;;;;;12.70;78.40;;;;;;4116911;28;20387;-86
2023/08/28 05:09:10;;;;;;;;;;;12.70;79.60;;;;;;4120702;28;19921;-85
2023/08/28 05:11:29;;;;;;;;;;;12.70;78.70;;;;;;4135825;28;19940;-86
2023/08/28 05:13:48;;;;;;;;;;;12.70;79.10;;;;;;4121553;28;19972;-86
2023/08/28 05:16:07;;;;;;;;;;;12.70;79.10;;;;;;4122920;28;20029;-86
2023/08/28 05:18:27;;;;;;;;;;;12.70;79.10;;;;;;4123261;28;20312;-88
2023/08/28 05:20:46;;;;;;;;;;;12.70;79.60;;;;;;4135733;28;19964;-86
2023/08/28 05:23:05;;;;;;;;;;;12.70;78.90;;;;;;4124134;28;19964;-86
2023/08/28 05:25:25;;;;;;;;;;;12.80;79.70;;;;;;4120719;28;20370;-86
2023/08/28 05:27:44;;;;;;;;;;;12.90;80.30;;;;;;4120987;28;20438;-86
2023/08/28 05:30:04;;;;;;;;;;;12.80;80.20;;;;;;4118027;28;20406;-87
2023/08/28 05:32:23;;;;;;;;;;;12.90;80.60;;;;;;4119828;28;20352;-87
2023/08/28 05:34:42;;;;;;;;;;;12.90;80.20;;;;;;4117956;28;19928;-88
2023/08/28 05:37:02;;;;;;;;;;;12.90;80.30;;;;;;4124465;28;19921;-86
2023/08/28 05:39:22;;;;;;;;;;;13.00;80.90;;;;;;4122146;28;19972;-87
2023/08/28 05:41:41;;;;;;;;;;;13.00;81.70;;;;;;4121601;28;19921;-87
2023/08/28 05:44:01;;;;;;;;;;;13.10;81.80;;;;;;4134688;28;19995;-86
2023/08/28 05:46:20;;;;;;;;;;;13.10;81.20;;;;;;4121084;28;19929;-87
2023/08/28 05:48:39;;;;;;;;;;;13.20;81.10;;;;;;4116847;28;19976;-86
2023/08/28 05:50:58;;;;;;;;;;;13.20;80.90;;;;;;4120789;28;19977;-87
2023/08/28 05:53:18;;;;;;;;;;;13.20;80.60;;;;;;4121195;28;19925;-86
2023/08/28 05:55:37;;;;;;;;;;;13.30;81.20;;;;;;4120271;28;19937;-86
2023/08/28 05:57:57;;;;;;;;;;;13.40;81.50;;;;;;4124407;28;20041;-87
2023/08/28 06:00:16;;;;;;;;;;;13.50;81.70;;;;;;4121973;28;19925;-87
2023/08/28 06:02:35;;;;;;;;;;;13.50;81.70;;;;;;4121580;28;20494;-87
2023/08/28 06:04:55;;;;;;;;;;;13.50;81.50;;;;;;4120431;28;20191;-87
2023/08/28 06:07:14;;;;;;;;;;;13.60;81.80;;;;;;4122664;28;19925;-87
2023/08/28 06:09:33;;;;;;;;;;;13.60;81.90;;;;;;4119439;28;19976;-87
2023/08/28 06:11:52;;;;;;;;;;;13.70;82.60;;;;;;4136985;28;19968;-87
2023/08/28 06:14:11;;;;;;;;;;;13.70;82.20;;;;;;4122368;28;20401;-87
2023/08/28 06:16:30;;;;;;;;;;;13.80;82.00;;;;;;4125166;28;19939;-86
2023/08/28 06:18:53;;;;;;;;;;;13.90;81.90;;;;;;4143578;28;20004;-89
2023/08/28 06:21:12;;;;;;;;;;;13.90;82.50;;;;;;4143584;28;20013;-87
2023/08/28 06:23:31;;;;;;;;;;;14.00;81.70;;;;;;4149021;28;19921;-85
2023/08/28 06:25:51;;;;;;;;;;;14.10;81.90;;;;;;4135280;28;19948;-86
2023/08/28 06:28:10;;;;;;;;;;;14.20;81.70;;;;;;4120855;28;19976;-87
2023/08/28 06:30:29;;;;;;;;;;;14.20;82.20;;;;;;4116956;28;20452;-87
2023/08/28 06:32:49;;;;;;;;;;;14.30;82.30;;;;;;4133694;28;19924;-87
2023/08/28 06:35:08;;;;;;;;;;;14.30;82.00;;;;;;4122147;28;19920;-86
2023/08/28 06:37:27;;;;;;;;;;;14.40;82.30;;;;;;4135515;28;20783;-83
2023/08/28 06:39:47;;;;;;;;;;;14.50;82.30;;;;;;4121055;28;20021;-87
2023/08/28 06:42:06;;;;;;;;;;;14.60;82.30;;;;;;4122519;28;19963;-86
2023/08/28 06:44:25;;;;;;;;;;;14.60;82.00;;;;;;4120316;28;20325;-86
2023/08/28 06:46:44;;;;;;;;;;;14.70;82.10;;;;;;4138733;28;20290;-86
2023/08/28 06:49:04;;;;;;;;;;;14.80;81.70;;;;;;4123064;28;20108;-86
2023/08/28 06:51:23;;;;;;;;;;;14.80;81.60;;;;;;4133335;28;20306;-87
2023/08/28 06:53:43;;;;;;;;;;;14.90;81.80;;;;;;4119916;28;20365;-88
2023/08/28 06:56:02;;;;;;;;;;;15.00;82.30;;;;;;4121404;28;19945;-87
2023/08/28 06:58:21;;;;;;;;;;;15.10;82.30;;;;;;4122923;28;19937;-87
2023/08/28 07:00:40;;;;;;;;;;;15.10;82.10;;;;;;4122369;28;19920;-88
2023/08/28 07:03:00;;;;;;;;;;;15.20;82.20;;;;;;4122554;28;19965;-86
2023/08/28 07:05:19;;;;;;;;;;;15.30;80.90;;;;;;4117681;28;20371;-87
2023/08/28 07:07:38;;;;;;;;;;;15.40;81.10;;;;;;4120509;28;20012;-87
2023/08/28 07:09:57;;;;;;;;;;;15.40;79.90;;;;;;4123766;28;19936;-87
2023/08/28 07:12:16;;;;;;;;;;;15.50;80.30;;;;;;4121954;28;19921;-87
2023/08/28 07:14:36;;;;;;;;;;;15.60;79.40;;;;;;4131724;28;19960;-88
2023/08/28 07:16:55;;;;;;;;;;;15.60;80.00;;;;;;4119110;28;19924;-87
2023/08/28 07:19:14;;;;;;;;;;;15.70;79.10;;;;;;4120965;28;19932;-86
2023/08/28 07:21:33;;;;;;;;;;;15.70;79.00;;;;;;4124303;28;19925;-87
2023/08/28 07:23:53;;;;;;;;;;;15.70;79.20;;;;;;4121554;28;19925;-86
2023/08/28 07:26:12;;;;;;;;;;;15.80;78.90;;;;;;4123925;28;19984;-87
2023/08/28 07:28:31;;;;;;;;;;;15.90;79.00;;;;;;4120114;28;19964;-86
2023/08/28 07:30:55;;;;;;;;;;;15.90;78.80;;;;;;4133243;28;20480;-88
2023/08/28 07:33:14;;;;;;;;;;;15.90;78.50;;;;;;4123024;28;19925;-88
2023/08/28 07:35:36;;;;;;;;;;;16.00;78.50;;;;;;4122078;28;20436;-86
2023/08/28 07:37:56;;;;;;;;;;;16.00;78.40;;;;;;4121975;28;19929;-86
2023/08/28 07:40:15;;;;;;;;;;;16.00;78.30;;;;;;4121586;28;19940;-86
2023/08/28 07:42:35;;;;;;;;;;;16.10;78.20;;;;;;4120134;28;19921;-86
2023/08/28 07:44:54;;;;;;;;;;;16.10;78.30;;;;;;4119972;28;19928;-86
2023/08/28 07:47:14;;;;;;;;;;;16.10;78.20;;;;;;4120430;28;19991;-86
2023/08/28 07:49:33;;;;;;;;;;;16.20;78.30;;;;;;4125133;28;20347;-86
2023/08/28 07:51:52;;;;;;;;;;;16.20;79.00;;;;;;4119378;28;20061;-86
2023/08/28 07:54:12;;;;;;;;;;;16.30;78.30;;;;;;4121852;28;19925;-87
2023/08/28 07:56:31;;;;;;;;;;;16.30;78.40;;;;;;4133617;28;19925;-87
2023/08/28 07:58:51;;;;;;;;;;;16.40;77.60;;;;;;4120757;28;19976;-87
2023/08/28 08:01:11;;;;;;;;;;;16.40;77.00;;;;;;4123009;28;19921;-85
2023/08/28 08:03:30;;;;;;;;;;;16.50;76.90;;;;;;4118653;28;19971;-85
2023/08/28 08:05:51;;;;;;;;;;;16.50;76.70;;;;;;4128226;28;20249;-85
2023/08/28 08:08:10;;;;;;;;;;;16.60;76.70;;;;;;4121345;28;19929;-85
2023/08/28 08:10:30;;;;;;;;;;;16.50;77.30;;;;;;4124346;28;19960;-86
2023/08/28 08:12:49;;;;;;;;;;;16.60;76.40;;;;;;4134110;28;20013;-85
2023/08/28 08:15:08;;;;;;;;;;;16.60;76.10;;;;;;4119840;28;20398;-85
2023/08/28 08:17:28;;;;;;;;;;;16.60;75.80;;;;;;4133304;28;19956;-84
2023/08/28 08:19:48;;;;;;;;;;;16.70;75.50;;;;;;4123568;28;19925;-85
2023/08/28 08:22:07;;;;;;;;;;;16.80;75.30;;;;;;4122421;28;19921;-85
2023/08/28 08:24:26;;;;;;;;;;;16.80;75.00;;;;;;4131363;28;20008;-87
2023/08/28 08:26:45;;;;;;;;;;;16.90;75.40;;;;;;4131805;28;19964;-86
2023/08/28 08:29:05;;;;;;;;;;;16.90;74.10;;;;;;4127168;28;20338;-86
2023/08/28 08:31:24;;;;;;;;;;;16.90;73.90;;;;;;4132734;28;19927;-87
2023/08/28 08:33:44;;;;;;;;;;;16.90;73.90;;;;;;4121829;28;19917;-85
2023/08/28 08:36:03;;;;;;;;;;;17.00;73.50;;;;;;4124355;28;20370;-83
2023/08/28 08:38:22;;;;;;;;;;;17.00;72.70;;;;;;4120060;28;20294;-84
2023/08/28 08:40:42;;;;;;;;;;;17.10;73.30;;;;;;4121669;28;20283;-84
2023/08/28 08:43:02;;;;;;;;;;;17.10;72.40;;;;;;4134795;28;19928;-84
2023/08/28 08:45:24;;;;;;;;;;;17.10;72.30;;;;;;4121216;28;19925;-84
2023/08/28 08:47:45;;;;;;;;;;;17.20;72.60;;;;;;4122856;28;20576;-83
2023/08/28 08:50:05;;;;;;;;;;;17.20;71.90;;;;;;4132545;28;19936;-85
2023/08/28 08:52:25;;;;;;;;;;;17.30;72.10;;;;;;4120646;28;19924;-83
2023/08/28 08:54:45;;;;;;;;;;;17.50;72.00;;;;;;4120436;28;19977;-83
2023/08/28 08:57:08;;;;;;;;;;;17.40;71.80;;;;;;4133563;28;20011;-86
2023/08/28 08:59:27;;;;;;;;;;;17.50;72.00;;;;;;4118092;28;19932;-84
2023/08/28 09:01:47;;;;;;;;;;;17.50;71.50;;;;;;4119837;28;19928;-84
2023/08/28 09:04:08;;;;;;;;;;;17.60;71.60;;;;;;4123262;28;20287;-84
2023/08/28 09:06:29;;;;;;;;;;;17.70;70.90;;;;;;4122107;28;19924;-85
2023/08/28 09:08:48;;;;;;;;;;;17.70;70.30;;;;;;4132943;28;19967;-85
2023/08/28 09:11:08;;;;;;;;;;;17.80;70.70;;;;;;4141450;28;20357;-86
2023/08/28 09:13:27;;;;;;;;;;;17.80;70.70;;;;;;4126785;28;19925;-84
2023/08/28 09:15:47;;;;;;;;;;;18.00;70.30;;;;;;4126153;28;19928;-83
2023/08/28 09:18:06;;;;;;;;;;;17.90;68.50;;;;;;4127761;28;20275;-87
2023/08/28 09:20:25;;;;;;;;;;;18.00;67.90;;;;;;4125231;28;19929;-87
2023/08/28 09:22:48;;;;;;;;;;;18.00;67.80;;;;;;4136754;28;19920;-87
2023/08/28 09:25:08;;;;;;;;;;;18.00;67.80;;;;;;4126241;28;20298;-87
2023/08/28 09:27:27;;;;;;;;;;;18.00;68.70;;;;;;4126861;28;19921;-86
2023/08/28 09:29:46;;;;;;;;;;;18.10;67.60;;;;;;4124313;28;19997;-87
2023/08/28 09:32:05;;;;;;;;;;;18.00;67.80;;;;;;4123041;28;19920;-84
2023/08/28 09:34:34;;;;;;;;;;;18.10;66.60;;;;;;4124448;28;19933;-86
2023/08/28 09:37:00;;;;;;;;;;;18.10;66.70;;;;;;4128788;28;20499;-84
2023/08/28 09:39:19;;;;;;;;;;;18.20;67.10;;;;;;4135797;28;20552;-86
2023/08/28 09:41:38;;;;;;;;;;;18.20;66.80;;;;;;4135102;28;19920;-85
2023/08/28 09:43:58;;;;;;;;;;;18.20;65.50;;;;;;4126890;28;20077;-86
2023/08/28 09:46:18;;;;;;;;;;;18.30;66.20;;;;;;4124706;28;19920;-85
2023/08/28 09:48:38;;;;;;;;;;;18.30;65.80;;;;;;4121676;28;19976;-86
2023/08/28 09:50:59;;;;;;;;;;;18.30;64.30;;;;;;4139084;28;19925;-83
2023/08/28 09:53:18;;;;;;;;;;;18.30;64.30;;;;;;4151118;28;20231;-83
2023/08/28 09:55:51;;;;;;;;;;;18.30;63.90;;;;;;4128238;28;19944;-83
2023/08/28 09:58:10;;;;;;;;;;;18.40;64.60;;;;;;4127518;28;19977;-83
2023/08/28 10:00:30;;;;;;;;;;;18.50;64.30;;;;;;4128523;28;19971;-84
2023/08/28 10:02:50;;;;;;;;;;;18.40;64.60;;;;;;4129178;28;19976;-83
2023/08/28 10:05:10;;;;;;;;;;;18.40;64.20;;;;;;4126853;28;19944;-83
2023/08/28 10:07:29;;;;;;;;;;;18.50;64.60;;;;;;4137163;28;19920;-86
2023/08/28 10:09:51;;;;;;;;;;;18.50;63.10;;;;;;4124107;28;19976;-81
2023/08/28 10:12:11;;;;;;;;;;;18.60;63.90;;;;;;4136791;28;19921;-84
2023/08/28 10:14:31;;;;;;;;;;;18.70;61.70;;;;;;4123686;28;20279;-84
2023/08/28 10:16:59;;;;;;;;;;;18.70;62.70;;;;;;4126284;28;19969;-84
2023/08/28 10:19:34;;;;;;;;;;;18.70;61.60;;;;;;4124254;28;19924;-85
2023/08/28 10:21:54;;;;;;;;;;;18.70;61.50;;;;;;4134938;28;19972;-83
2023/08/28 10:24:13;;;;;;;;;;;18.90;63.00;;;;;;4142534;28;19916;-82
2023/08/28 10:26:32;;;;;;;;;;;18.80;61.20;;;;;;4144624;28;19925;-83
2023/08/28 10:28:52;;;;;;;;;;;18.80;61.10;;;;;;4142539;28;20033;-82
2023/08/28 10:31:12;;;;;;;;;;;18.90;61.30;;;;;;4156871;28;19916;-83
2023/08/28 10:33:32;;;;;;;;;;;18.90;61.10;;;;;;4144200;28;20042;-83
2023/08/28 10:35:54;;;;;;;;;;;19.00;61.30;;;;;;4144620;28;19944;-84
2023/08/28 10:38:13;;;;;;;;;;;19.00;61.10;;;;;;4143012;28;19933;-84
2023/08/28 10:40:32;;;;;;;;;;;19.20;61.20;;;;;;4124777;28;19956;-84
2023/08/28 10:42:53;;;;;;;;;;;19.20;61.40;;;;;;4137540;28;19956;-84
2023/08/28 10:45:12;;;;;;;;;;;19.20;61.10;;;;;;4121443;28;20017;-85
2023/08/28 10:47:32;;;;;;;;;;;19.20;60.00;;;;;;4127245;28;19948;-84
2023/08/28 10:49:55;;;;;;;;;;;19.20;59.10;;;;;;4135343;28;19959;-84
2023/08/28 10:52:18;;;;;;;;;;;19.20;59.00;;;;;;4126888;28;19941;-85
2023/08/28 10:54:40;;;;;;;;;;;19.30;59.30;;;;;;4122358;28;21396;-85
2023/08/28 10:57:00;;;;;;;;;;;19.30;59.20;;;;;;4124781;28;19924;-86
2023/08/28 10:59:26;;;;;;;;;;;19.30;58.90;;;;;;4122881;28;20029;-84
2023/08/28 11:01:53;;;;;;;;;;;19.30;58.90;;;;;;4124351;28;20410;-85
2023/08/28 11:04:16;;;;;;;;;;;19.30;59.20;;;;;;4131990;28;19919;-85
2023/08/28 11:06:35;;;;;;;;;;;19.30;59.00;;;;;;4122456;28;19968;-85
2023/08/28 11:08:55;;;;;;;;;;;19.30;58.80;;;;;;4123445;28;19972;-85
2023/08/28 11:11:14;;;;;;;;;;;19.30;58.20;;;;;;4121997;28;20333;-86
2023/08/28 11:13:34;;;;;;;;;;;19.20;57.60;;;;;;4134665;28;20489;-83
2023/08/28 11:16:03;;;;;;;;;;;19.20;57.70;;;;;;4141772;28;20156;-82
2023/08/28 11:18:29;;;;;;;;;;;19.20;57.80;;;;;;4142773;28;19973;-82
2023/08/28 11:20:52;;;;;;;;;;;19.10;57.50;;;;;;4132254;28;19961;-86
2023/08/28 11:23:18;;;;;;;;;;;19.10;57.00;;;;;;4131426;28;20072;-86
2023/08/28 11:25:39;;;;;;;;;;;19.20;58.10;;;;;;4122538;28;19925;-85
2023/08/28 11:27:59;;;;;;;;;;;19.10;58.00;;;;;;4133755;28;19932;-86
2023/08/28 11:30:20;;;;;;;;;;;19.10;57.90;;;;;;4118227;28;19960;-84
2023/08/28 11:32:42;;;;;;;;;;;19.10;57.90;;;;;;4122743;28;19929;-85
2023/08/28 11:35:07;;;;;;;;;;;19.10;57.70;;;;;;4134449;28;19963;-84
2023/08/28 11:37:34;;;;;;;;;;;19.10;57.70;;;;;;4134026;28;19929;-85
2023/08/28 11:39:54;;;;;;;;;;;19.20;57.90;;;;;;4130511;28;19933;-84
2023/08/28 11:42:13;;;;;;;;;;;19.20;58.30;;;;;;4121252;28;19924;-85
2023/08/28 11:44:32;;;;;;;;;;;19.30;58.10;;;;;;4132781;28;20429;-84
2023/08/28 11:46:54;;;;;;;;;;;19.30;58.30;;;;;;4121892;28;20496;-85
2023/08/28 11:49:14;;;;;;;;;;;19.30;58.40;;;;;;4120381;28;19922;-85
2023/08/28 11:51:35;;;;;;;;;;;19.30;57.80;;;;;;4123033;28;19925;-85
2023/08/28 11:53:54;;;;;;;;;;;19.40;57.90;;;;;;4130228;28;20326;-83
2023/08/28 11:56:13;;;;;;;;;;;19.40;57.80;;;;;;4132381;28;20019;-85
2023/08/28 11:58:33;;;;;;;;;;;19.40;57.70;;;;;;4123270;28;19925;-85
2023/08/28 12:00:53;;;;;;;;;;;19.40;58.10;;;;;;4134302;28;19964;-86
2023/08/28 12:03:18;;;;;;;;;;;19.40;58.40;;;;;;4118227;28;19976;-84
2023/08/28 12:05:38;;;;;;;;;;;19.40;58.60;;;;;;4118538;28;19945;-85
2023/08/28 12:07:58;;;;;;;;;;;19.40;59.10;;;;;;4116592;28;20008;-84
2023/08/28 12:10:18;;;;;;;;;;;19.50;59.30;;;;;;4131788;28;19920;-84
2023/08/28 12:12:37;;;;;;;;;;;19.50;59.30;;;;;;4113688;28;20041;-84
2023/08/28 12:14:56;;;;;;;;;;;19.60;59.20;;;;;;4115369;28;19980;-84
2023/08/28 12:17:16;;;;;;;;;;;19.60;59.30;;;;;;4118909;28;19920;-85
2023/08/28 12:19:35;;;;;;;;;;;19.70;59.70;;;;;;4120708;28;19928;-85
2023/08/28 12:22:07;;;;;;;;;;;19.70;58.60;;;;;;4118718;28;19956;-84
2023/08/28 12:24:26;;;;;;;;;;;19.80;58.80;;;;;;4122621;28;19997;-85
2023/08/28 12:26:49;;;;;;;;;;;19.80;57.80;;;;;;4121560;28;19925;-85
2023/08/28 12:29:08;;;;;;;;;;;19.90;58.10;;;;;;4120834;28;19923;-84
2023/08/28 12:31:32;;;;;;;;;;;19.90;57.90;;;;;;4123095;28;20556;-83
2023/08/28 12:33:52;;;;;;;;;;;19.90;57.80;;;;;;4121517;28;20045;-84
2023/08/28 12:36:11;;;;;;;;;;;20.00;58.40;;;;;;4121640;28;19984;-83
2023/08/28 12:38:30;;;;;;;;;;;20.00;58.40;;;;;;4122407;28;19924;-84
2023/08/28 12:40:50;;;;;;;;;;;20.00;57.30;;;;;;4121647;28;19943;-83
2023/08/28 12:43:10;;;;;;;;;;;20.00;58.10;;;;;;4119463;28;20279;-84
2023/08/28 12:45:31;;;;;;;;;;;20.00;57.60;;;;;;4125296;28;20024;-84
2023/08/28 12:47:50;;;;;;;;;;;20.00;57.30;;;;;;4127948;28;19925;-84
2023/08/28 12:50:10;;;;;;;;;;;20.00;57.40;;;;;;4126399;28;19920;-84
2023/08/28 12:52:30;;;;;;;;;;;19.90;56.80;;;;;;4124473;28;20054;-84
2023/08/28 12:54:49;;;;;;;;;;;19.90;57.20;;;;;;4122318;28;19921;-84
2023/08/28 12:57:10;;;;;;;;;;;20.00;57.40;;;;;;4127920;28;20298;-83
2023/08/28 12:59:29;;;;;;;;;;;19.90;56.80;;;;;;4127919;28;19916;-84
2023/08/28 13:01:50;;;;;;;;;;;19.90;57.30;;;;;;4123634;28;19990;-84
2023/08/28 13:04:09;;;;;;;;;;;19.90;57.40;;;;;;4122535;28;19921;-82
2023/08/28 13:06:29;;;;;;;;;;;19.90;56.90;;;;;;4126130;28;19964;-83
2023/08/28 13:08:49;;;;;;;;;;;19.90;56.20;;;;;;4126285;28;20040;-84
2023/08/28 13:11:08;;;;;;;;;;;20.00;55.50;;;;;;4126697;28;19956;-82
2023/08/28 13:13:30;;;;;;;;;;;20.00;54.20;;;;;;4125010;28;19928;-83
2023/08/28 13:15:50;;;;;;;;;;;20.00;54.60;;;;;;4133873;28;20214;-84
2023/08/28 13:18:09;;;;;;;;;;;20.10;54.40;;;;;;4125079;28;19975;-83
2023/08/28 13:20:28;;;;;;;;;;;20.10;54.60;;;;;;4141120;28;19928;-81
2023/08/28 13:22:49;;;;;;;;;;;20.10;54.60;;;;;;4139574;28;19985;-84
2023/08/28 13:25:09;;;;;;;;;;;20.10;54.70;;;;;;4124446;28;19976;-84
2023/08/28 13:27:28;;;;;;;;;;;20.20;54.40;;;;;;4126155;28;19929;-84
2023/08/28 13:29:47;;;;;;;;;;;20.20;54.30;;;;;;4135581;28;19920;-84
2023/08/28 13:32:07;;;;;;;;;;;20.20;55.00;;;;;;4121702;28;20008;-84
2023/08/28 13:34:26;;;;;;;;;;;20.20;54.40;;;;;;4120724;28;20549;-84